Time;durP1;ratioP1;P1;durP2;ratioP2;P2;SDS_P1;SDS_P2;PMS_P1;PMS_P2;Temp;Humidity;BMP_temperature;BMP_pressure;BME280_temperature;BME280_humidity;BME280_pressure;Samples;Min_cycle;Max_cycle;Signal;HPM_P1;HPM_P2
2023/12/06 00:03:41;;;;;;;80.32;75.07;;;6.30;85.80;;;;;;12560901;28;20025;-71
2023/12/06 00:09:43;;;;;;;98.20;91.63;;;6.20;85.40;;;;;;12542200;28;20347;-72
2023/12/06 00:15:45;;;;;;;74.53;69.45;;;6.20;85.60;;;;;;12559617;28;20328;-72
2023/12/06 00:21:46;;;;;;;88.18;82.43;;;6.10;85.40;;;;;;12560097;28;20036;-72
2023/12/06 00:27:48;;;;;;;75.25;69.85;;;6.10;85.70;;;;;;12559122;28;20478;-72
2023/12/06 00:33:50;;;;;;;72.28;67.70;;;6.20;85.70;;;;;;12559429;28;20033;-72
2023/12/06 00:39:52;;;;;;;79.65;74.22;;;6.10;85.70;;;;;;12558546;28;20047;-72
2023/12/06 00:45:54;;;;;;;84.85;79.47;;;6.10;85.70;;;;;;12558182;28;20056;-72
2023/12/06 00:51:57;;;;;;;83.32;78.28;;;6.10;85.70;;;;;;12557151;28;20329;-72
2023/12/06 00:57:59;;;;;;;83.15;77.80;;;6.10;85.90;;;;;;12558212;28;20033;-72
2023/12/06 01:04:00;;;;;;;70.25;65.70;;;6.20;85.80;;;;;;12557540;28;20033;-72
2023/12/06 01:10:06;;;;;;;61.92;57.40;;;6.20;85.90;;;;;;12557107;28;20021;-72
2023/12/06 01:16:37;;;;;;;69.75;65.32;;;6.20;85.90;;;;;;12539188;28;20362;-72
2023/12/06 01:23:09;;;;;;;75.40;71.00;;;6.10;85.90;;;;;;12557434;28;20158;-72
2023/12/06 01:29:11;;;;;;;63.92;59.85;;;6.10;85.80;;;;;;12556140;28;20025;-72
2023/12/06 01:35:13;;;;;;;56.65;52.72;;;6.00;85.80;;;;;;12555721;28;20037;-72
2023/12/06 01:41:14;;;;;;;93.63;87.43;;;6.00;85.80;;;;;;12556260;28;20036;-72
2023/12/06 01:47:20;;;;;;;86.38;80.55;;;6.00;85.80;;;;;;12555915;28;20029;-72
2023/12/06 01:53:22;;;;;;;77.35;72.45;;;5.90;85.60;;;;;;12554965;28;20037;-72
2023/12/06 01:59:25;;;;;;;97.43;91.13;;;5.90;85.70;;;;;;12554745;28;20033;-72
2023/12/06 02:05:26;;;;;;;71.68;66.78;;;5.90;85.70;;;;;;12554386;28;20347;-72
2023/12/06 02:11:28;;;;;;;82.20;77.00;;;5.90;85.70;;;;;;12554405;28;20037;-72
2023/12/06 02:17:30;;;;;;;78.90;73.88;;;5.90;85.70;;;;;;12554819;28;20051;-72
2023/12/06 02:23:39;;;;;;;77.10;72.18;;;6.00;85.70;;;;;;12554030;28;20025;-72
2023/12/06 02:29:40;;;;;;;82.28;77.72;;;6.00;85.60;;;;;;12553875;28;20036;-72
2023/12/06 02:35:48;;;;;;;60.22;55.90;;;6.10;85.80;;;;;;12535960;28;20041;-72
2023/12/06 02:41:49;;;;;;;64.13;59.85;;;6.10;85.60;;;;;;12553484;28;20024;-72
2023/12/06 02:47:52;;;;;;;75.45;70.95;;;6.00;85.70;;;;;;12535691;28;20060;-72
2023/12/06 02:53:53;;;;;;;75.57;71.15;;;6.10;85.80;;;;;;12535960;28;20056;-72
2023/12/06 02:59:55;;;;;;;67.25;63.22;;;6.20;86.00;;;;;;12553052;28;20037;-72
2023/12/06 03:05:56;;;;;;;68.50;64.57;;;6.20;85.70;;;;;;12553092;28;20036;-72
2023/12/06 03:11:58;;;;;;;71.28;66.68;;;6.20;85.90;;;;;;12552923;28;20036;-72
2023/12/06 03:17:59;;;;;;;80.25;75.68;;;6.30;85.90;;;;;;12542675;28;20025;-72
2023/12/06 03:24:01;;;;;;;95.90;90.68;;;6.40;86.10;;;;;;12527976;28;20025;-72
2023/12/06 03:30:03;;;;;;;112.88;106.63;;;6.60;86.10;;;;;;12562084;28;20033;-72
2023/12/06 03:36:05;;;;;;;120.82;114.63;;;6.90;86.10;;;;;;12562044;28;20040;-72
2023/12/06 03:42:06;;;;;;;135.65;128.55;;;7.20;86.20;;;;;;12561216;28;20450;-72
2023/12/06 03:48:08;;;;;;;162.20;154.52;;;7.20;86.30;;;;;;12543174;28;20498;-72
2023/12/06 03:54:09;;;;;;;159.98;151.68;;;7.20;86.20;;;;;;12560959;28;20032;-72
2023/12/06 04:00:13;;;;;;;115.13;108.93;;;6.80;86.10;;;;;;12543107;28;20040;-72
2023/12/06 04:06:15;;;;;;;122.13;115.82;;;6.70;86.50;;;;;;12560152;28;20043;-72
2023/12/06 04:12:16;;;;;;;90.30;85.60;;;6.90;86.40;;;;;;12542108;28;20033;-72
2023/12/06 04:18:18;;;;;;;113.60;107.93;;;6.90;85.90;;;;;;12542072;28;20448;-72
2023/12/06 04:24:19;;;;;;;84.75;80.32;;;6.70;85.90;;;;;;12541517;28;20033;-72
2023/12/06 04:30:21;;;;;;;95.60;90.30;;;6.50;86.10;;;;;;12558882;28;20034;-72
2023/12/06 04:36:22;;;;;;;74.72;70.30;;;6.50;86.20;;;;;;12540916;28;20033;-72
2023/12/06 04:42:24;;;;;;;89.20;84.63;;;6.50;86.10;;;;;;12558595;28;20423;-72
2023/12/06 04:48:25;;;;;;;129.25;122.72;;;6.80;86.00;;;;;;12558838;28;20442;-72
2023/12/06 04:54:27;;;;;;;145.10;138.55;;;7.20;86.00;;;;;;12557750;28;20059;-72
2023/12/06 05:00:30;;;;;;;129.32;123.03;;;7.40;85.30;;;;;;12557629;28;20328;-72
2023/12/06 05:06:31;;;;;;;113.38;107.97;;;7.00;85.10;;;;;;12557369;28;20029;-72
2023/12/06 05:12:33;;;;;;;99.35;94.00;;;6.70;85.40;;;;;;12557025;28;20029;-72
2023/12/06 05:18:35;;;;;;;149.15;141.13;;;6.60;85.80;;;;;;12556636;28;20047;-72
2023/12/06 05:24:36;;;;;;;129.88;123.38;;;7.00;85.20;;;;;;12556457;28;20443;-72
2023/12/06 05:30:39;;;;;;;141.95;134.75;;;7.20;84.40;;;;;;12556110;28;20384;-72
2023/12/06 05:36:40;;;;;;;157.40;150.18;;;7.30;84.10;;;;;;12555274;28;20355;-72
2023/12/06 05:42:42;;;;;;;102.47;97.22;;;7.40;83.50;;;;;;12537932;28;20033;-72
2023/12/06 05:48:43;;;;;;;153.90;146.93;;;7.10;83.50;;;;;;12537663;28;20032;-72
2023/12/06 05:54:45;;;;;;;83.35;79.03;;;6.70;83.90;;;;;;12554984;28;20029;-72
2023/12/06 06:00:46;;;;;;;101.78;95.50;;;6.50;84.00;;;;;;12554937;28;20021;-72
2023/12/06 06:06:48;;;;;;;98.00;91.93;;;6.50;84.70;;;;;;12554639;28;20336;-72
2023/12/06 06:12:49;;;;;;;111.43;105.25;;;6.70;84.30;;;;;;12554367;28;20470;-72
2023/12/06 06:18:51;;;;;;;135.35;127.75;;;7.00;84.00;;;;;;12554083;28;20029;-73
2023/12/06 06:24:53;;;;;;;85.72;80.32;;;7.10;83.20;;;;;;12554029;28;20036;-72
2023/12/06 06:30:54;;;;;;;68.05;63.97;;;6.50;83.40;;;;;;12536159;28;20332;-73
2023/12/06 06:36:56;;;;;;;75.20;70.55;;;6.10;83.70;;;;;;12553587;28;20328;-72
2023/12/06 06:42:58;;;;;;;61.20;57.30;;;5.80;84.30;;;;;;12554146;28;20029;-72
2023/12/06 06:48:59;;;;;;;55.55;51.95;;;5.70;84.70;;;;;;12554090;28;20423;-72
2023/12/06 06:55:01;;;;;;;46.38;43.03;;;5.60;84.60;;;;;;12569192;22;20037;-72
2023/12/06 07:01:03;;;;;;;54.80;51.15;;;5.60;84.70;;;;;;12562491;28;20443;-72
2023/12/06 07:07:05;;;;;;;52.85;49.08;;;5.60;85.10;;;;;;12545025;28;20039;-72
2023/12/06 07:13:06;;;;;;;66.28;62.00;;;5.80;84.70;;;;;;12562295;28;20458;-72
2023/12/06 07:19:23;;;;;;;91.03;84.55;;;5.80;84.90;;;;;;12528496;28;20451;-72
2023/12/06 07:25:25;;;;;;;96.88;91.00;;;6.20;84.70;;;;;;12544895;28;20036;-72
2023/12/06 07:31:47;;;;;;;144.57;136.63;;;6.50;84.20;;;;;;12543929;28;20045;-72
2023/12/06 07:38:13;;;;;;;125.35;118.25;;;7.00;83.50;;;;;;12542137;28;20056;-72
2023/12/06 07:44:17;;;;;;;163.65;155.32;;;7.20;83.00;;;;;;12561842;28;20021;-72
2023/12/06 07:50:31;;;;;;;135.40;127.68;;;7.20;82.60;;;;;;12560879;28;20029;-73
2023/12/06 07:56:33;;;;;;;142.10;135.07;;;7.40;82.30;;;;;;12542887;28;20033;-72
2023/12/06 08:02:35;;;;;;;120.78;114.65;;;7.60;82.00;;;;;;12542083;28;20029;-73
2023/12/06 08:08:39;;;;;;;140.93;133.65;;;6.90;82.10;;;;;;12560000;28;20036;-73
2023/12/06 08:14:52;;;;;;;140.10;132.60;;;6.70;83.10;;;;;;12541921;28;20033;-72
2023/12/06 08:20:53;;;;;;;89.55;84.68;;;6.50;83.10;;;;;;12560899;28;20017;-72
2023/12/06 08:26:57;;;;;;;117.10;110.90;;;6.40;83.20;;;;;;12542080;28;20036;-72
2023/12/06 08:33:02;;;;;;;104.32;98.38;;;6.60;83.50;;;;;;12539371;28;20040;-72
2023/12/06 08:39:08;;;;;;;94.82;89.30;;;6.40;83.40;;;;;;12559374;28;20040;-72
2023/12/06 08:45:22;;;;;;;90.03;84.13;;;6.10;83.70;;;;;;12541308;28;20033;-72
2023/12/06 08:51:51;;;;;;;119.95;112.35;;;6.40;84.40;;;;;;12558022;28;20036;-72
2023/12/06 08:57:53;;;;;;;111.20;105.25;;;6.80;84.00;;;;;;12523516;28;20041;-72
2023/12/06 09:03:54;;;;;;;115.95;109.75;;;7.20;83.70;;;;;;12540481;28;20029;-72
2023/12/06 09:09:56;;;;;;;134.68;127.95;;;7.10;83.20;;;;;;12557123;28;20355;-72
2023/12/06 09:15:58;;;;;;;111.10;104.40;;;6.90;83.80;;;;;;12538020;28;20055;-72
2023/12/06 09:21:59;;;;;;;197.48;187.82;;;7.20;85.10;;;;;;12556429;28;20033;-72
2023/12/06 09:28:03;;;;;;;77.40;72.30;;;7.70;85.10;;;;;;12556926;28;20029;-72
2023/12/06 09:34:06;;;;;;;91.35;85.32;;;7.80;84.80;;;;;;12556056;28;20033;-72
2023/12/06 09:40:09;;;;;;;62.97;58.72;;;8.10;85.10;;;;;;12538502;28;20033;-72
2023/12/06 09:46:15;;;;;;;47.45;43.78;;;8.40;84.70;;;;;;12555711;28;20040;-72
2023/12/06 09:52:22;;;;;;;34.05;31.05;;;8.60;84.70;;;;;;12555628;28;20039;-72
2023/12/06 09:58:24;;;;;;;23.25;18.90;;;8.80;84.90;;;;;;12555359;28;20029;-72
2023/12/06 10:04:25;;;;;;;23.60;19.95;;;9.10;84.70;;;;;;12555282;28;20031;-72
2023/12/06 10:10:27;;;;;;;24.75;20.85;;;9.20;85.30;;;;;;12537127;28;20455;-72
2023/12/06 10:16:29;;;;;;;23.23;20.02;;;9.50;85.20;;;;;;12554534;28;20432;-72
2023/12/06 10:22:31;;;;;;;21.95;19.55;;;9.60;85.20;;;;;;12554497;28;20040;-72
2023/12/06 10:28:36;;;;;;;19.90;17.80;;;9.60;84.90;;;;;;12520836;28;20048;-72
2023/12/06 10:34:38;;;;;;;22.08;18.85;;;9.50;85.50;;;;;;12554337;28;20029;-72
2023/12/06 10:40:40;;;;;;;19.80;15.77;;;9.60;85.40;;;;;;12554189;28;20048;-72
2023/12/06 10:46:44;;;;;;;20.25;15.10;;;9.30;85.20;;;;;;12554611;28;20308;-72
2023/12/06 10:52:47;;;;;;;17.98;15.13;;;9.20;86.00;;;;;;12554115;28;20033;-72
2023/12/06 10:58:51;;;;;;;17.02;14.05;;;9.30;86.30;;;;;;12553551;28;20040;-72
2023/12/06 11:05:05;;;;;;;19.63;17.00;;;9.40;86.10;;;;;;12535379;28;20029;-72
2023/12/06 11:11:30;;;;;;;20.75;17.02;;;9.70;86.20;;;;;;12552968;28;20440;-72
2023/12/06 11:17:42;;;;;;;18.30;15.77;;;10.00;85.70;;;;;;12534693;28;20043;-72
2023/12/06 11:23:46;;;;;;;17.00;15.07;;;10.20;85.70;;;;;;12534963;28;20021;-72
2023/12/06 11:29:49;;;;;;;16.95;14.25;;;10.40;85.30;;;;;;12553324;28;20036;-72
2023/12/06 11:35:54;;;;;;;13.80;11.88;;;10.40;85.20;;;;;;12520587;28;20045;-73
2023/12/06 11:41:59;;;;;;;16.42;12.32;;;10.50;85.20;;;;;;12561277;28;20029;-72
2023/12/06 11:48:24;;;;;;;12.13;9.13;;;10.30;85.10;;;;;;12560987;28;20033;-72
2023/12/06 11:54:34;;;;;;;11.25;9.13;;;10.20;85.80;;;;;;12560648;28;20040;-72
2023/12/06 12:00:41;;;;;;;12.52;10.23;;;10.40;86.00;;;;;;12560274;28;20025;-72
2023/12/06 12:06:42;;;;;;;10.95;9.32;;;10.50;85.70;;;;;;12550192;28;20443;-72
2023/12/06 12:12:44;;;;;;;10.80;8.32;;;10.30;85.40;;;;;;12540186;28;20048;-72
2023/12/06 12:18:46;;;;;;;10.55;8.05;;;10.20;85.70;;;;;;12541477;28;20029;-72
2023/12/06 12:24:47;;;;;;;11.75;8.57;;;10.20;85.90;;;;;;12559287;28;20025;-72
2023/12/06 12:31:12;;;;;;;9.52;7.93;;;10.50;85.70;;;;;;12559025;28;20040;-72
2023/12/06 12:37:14;;;;;;;11.05;8.00;;;10.70;85.20;;;;;;12540827;28;20033;-72
2023/12/06 12:43:15;;;;;;;10.23;7.15;;;10.70;85.30;;;;;;12558423;28;20462;-72
2023/12/06 12:49:18;;;;;;;11.40;7.75;;;10.80;85.60;;;;;;12539128;28;20048;-72
2023/12/06 12:55:22;;;;;;;7.93;6.55;;;10.80;85.30;;;;;;12523973;28;20041;-72
2023/12/06 13:01:24;;;;;;;9.60;7.22;;;10.90;85.70;;;;;;12540510;28;20050;-72
2023/12/06 13:07:28;;;;;;;9.07;6.82;;;10.90;85.80;;;;;;12539934;28;20044;-74
2023/12/06 13:13:54;;;;;;;10.50;7.07;;;11.20;85.30;;;;;;12557043;28;20032;-74
2023/12/06 13:20:07;;;;;;;8.85;5.97;;;11.00;85.10;;;;;;12557271;28;20033;-74
2023/12/06 13:26:11;;;;;;;8.50;5.40;;;10.90;85.50;;;;;;12556280;28;20039;-74
2023/12/06 13:32:14;;;;;;;12.40;6.30;;;11.00;85.70;;;;;;12556053;28;20036;-75
2023/12/06 13:38:16;;;;;;;8.75;6.15;;;11.20;85.60;;;;;;12521665;28;20032;-75
2023/12/06 13:44:19;;;;;;;9.90;6.13;;;10.90;85.40;;;;;;12537816;28;20025;-74
2023/12/06 13:50:24;;;;;;;9.32;5.85;;;10.90;86.10;;;;;;12537761;28;20450;-75
2023/12/06 13:56:25;;;;;;;8.90;6.75;;;10.80;85.50;;;;;;12537266;28;20041;-74
2023/12/06 14:02:27;;;;;;;11.25;6.68;;;10.60;86.30;;;;;;12520301;28;20355;-74
2023/12/06 14:08:31;;;;;;;12.13;7.43;;;11.00;86.00;;;;;;12537363;28;20029;-74
2023/12/06 14:14:34;;;;;;;13.30;8.93;;;11.20;85.90;;;;;;12537131;28;20036;-74
2023/12/06 14:20:36;;;;;;;10.60;8.65;;;11.60;86.00;;;;;;12554096;28;20044;-75
2023/12/06 14:26:37;;;;;;;11.07;8.07;;;11.80;85.00;;;;;;12540428;28;20029;-75
2023/12/06 14:32:39;;;;;;;9.80;6.80;;;12.20;85.20;;;;;;12504296;28;20037;-74
2023/12/06 14:38:42;;;;;;;9.95;6.70;;;12.50;85.10;;;;;;12486176;28;20052;-74
2023/12/06 14:44:48;;;;;;;8.55;6.22;;;12.00;85.60;;;;;;12497216;28;20040;-75
2023/12/06 14:50:53;;;;;;;7.50;5.57;;;11.50;86.60;;;;;;12559340;22;20049;-74
2023/12/06 14:56:59;;;;;;;10.75;8.18;;;11.20;87.00;;;;;;12519602;28;20443;-75
2023/12/06 15:03:01;;;;;;;9.73;7.32;;;11.30;87.30;;;;;;12535376;28;20351;-74
2023/12/06 15:09:03;;;;;;;12.57;10.77;;;11.20;87.00;;;;;;12552943;28;20029;-75
2023/12/06 15:15:05;;;;;;;13.40;10.05;;;11.00;87.50;;;;;;12543702;28;20053;-74
2023/12/06 15:21:07;;;;;;;12.18;10.70;;;11.20;87.10;;;;;;12544740;28;20029;-74
2023/12/06 15:27:08;;;;;;;14.57;11.93;;;11.20;87.10;;;;;;12559152;28;20051;-74
2023/12/06 15:33:10;;;;;;;14.18;11.38;;;11.20;86.70;;;;;;12539932;28;20051;-74
2023/12/06 15:39:15;;;;;;;12.88;10.50;;;11.10;86.70;;;;;;12561264;28;20036;-75
2023/12/06 15:45:29;;;;;;;11.98;10.63;;;11.10;86.40;;;;;;12543519;28;20032;-75
2023/12/06 15:51:31;;;;;;;11.88;9.68;;;11.10;86.00;;;;;;12543398;28;20033;-75
2023/12/06 15:57:51;;;;;;;12.60;10.38;;;10.90;85.50;;;;;;12560726;28;20036;-74
2023/12/06 16:03:52;;;;;;;11.82;9.20;;;10.80;85.50;;;;;;12542719;28;20029;-74
2023/12/06 16:09:56;;;;;;;12.98;10.48;;;10.70;85.40;;;;;;12542526;28;20040;-75
2023/12/06 16:16:27;;;;;;;14.98;10.85;;;10.70;85.00;;;;;;12559806;28;20028;-74
2023/12/06 16:22:46;;;;;;;15.98;12.68;;;10.70;84.50;;;;;;12559298;28;20321;-74
2023/12/06 16:28:47;;;;;;;;;;;10.70;84.10;;;;;;12559807;28;20035;-74
2023/12/06 16:35:01;;;;;;;22.85;17.83;;;10.70;83.80;;;;;;12559655;28;19916;-74
2023/12/06 16:41:03;;;;;;;24.02;17.33;;;10.70;83.70;;;;;;12525219;28;20045;-74
2023/12/06 16:47:06;;;;;;;22.55;18.10;;;10.50;83.60;;;;;;12558483;28;20052;-75
2023/12/06 16:53:26;;;;;;;25.35;21.88;;;10.40;83.70;;;;;;12558020;28;20039;-74
2023/12/06 16:59:28;;;;;;;26.50;22.70;;;10.30;84.00;;;;;;12540002;28;20028;-74
2023/12/06 17:05:30;;;;;;;26.65;23.55;;;10.30;83.80;;;;;;12557590;28;20029;-75
2023/12/06 17:11:31;;;;;;;28.40;24.02;;;10.20;83.60;;;;;;12557272;28;20032;-74
2023/12/06 17:17:33;;;;;;;32.00;28.67;;;10.20;83.50;;;;;;12556709;28;20427;-74
2023/12/06 17:23:35;;;;;;;30.92;26.35;;;9.90;83.70;;;;;;12538885;28;20040;-75
2023/12/06 17:29:37;;;;;;;29.80;24.38;;;9.90;83.70;;;;;;12522753;28;20466;-74
2023/12/06 17:35:39;;;;;;;36.17;27.92;;;9.80;83.60;;;;;;12555339;28;20029;-75
2023/12/06 17:41:40;;;;;;;28.75;23.90;;;9.50;84.00;;;;;;12538119;28;20394;-75
2023/12/06 17:47:42;;;;;;;30.13;24.92;;;9.40;84.20;;;;;;12555665;28;20370;-74
2023/12/06 17:53:43;;;;;;;28.67;25.70;;;9.20;84.40;;;;;;12538120;28;20044;-74
2023/12/06 17:59:44;;;;;;;35.50;31.65;;;9.30;84.40;;;;;;12537900;28;20040;-75
2023/12/06 18:05:46;;;;;;;28.90;26.08;;;9.40;84.10;;;;;;12555006;28;20033;-74
2023/12/06 18:11:48;;;;;;;29.98;27.05;;;9.30;83.70;;;;;;12554213;28;20339;-75
2023/12/06 18:17:50;;;;;;;31.08;27.95;;;9.30;83.60;;;;;;12554150;28;20029;-74
2023/12/06 18:23:51;;;;;;;35.45;31.73;;;9.30;84.00;;;;;;12554005;28;20025;-75
2023/12/06 18:29:53;;;;;;;33.53;29.92;;;9.40;84.20;;;;;;12520103;28;20048;-75
2023/12/06 18:35:55;;;;;;;34.53;30.90;;;9.30;84.00;;;;;;12536223;28;20036;-74
2023/12/06 18:41:56;;;;;;;30.42;27.48;;;9.20;83.70;;;;;;12553814;28;20054;-75
2023/12/06 18:47:59;;;;;;;35.75;32.40;;;9.20;83.80;;;;;;12561272;28;20052;-75
2023/12/06 18:54:03;;;;;;;46.53;43.30;;;9.00;83.60;;;;;;12546558;28;20041;-75
2023/12/06 19:00:05;;;;;;;47.65;43.85;;;9.00;83.30;;;;;;12564108;28;20071;-75
2023/12/06 19:06:07;;;;;;;60.25;56.33;;;8.80;83.10;;;;;;12545641;28;20048;-75
2023/12/06 19:12:09;;;;;;;67.70;64.25;;;8.70;83.20;;;;;;12545855;28;20032;-75
2023/12/06 19:18:11;;;;;;;74.97;71.13;;;8.70;83.10;;;;;;12528438;28;20040;-75
2023/12/06 19:24:13;;;;;;;134.02;127.55;;;8.60;82.90;;;;;;12563090;28;20024;-75
2023/12/06 19:30:16;;;;;;;150.88;143.45;;;8.60;82.80;;;;;;12544071;28;20329;-74
2023/12/06 19:36:32;;;;;;;157.73;150.20;;;8.60;82.60;;;;;;12561758;28;20032;-74
2023/12/06 19:43:10;;;;;;;165.07;157.40;;;8.60;82.40;;;;;;12531529;28;20060;-74
2023/12/06 19:49:17;;;;;;;130.63;124.43;;;8.50;82.20;;;;;;12543177;28;20044;-75
2023/12/06 19:55:19;;;;;;;197.48;187.45;;;8.50;82.20;;;;;;12544224;28;20040;-75
2023/12/06 20:01:22;;;;;;;210.05;200.13;;;8.40;82.10;;;;;;12542554;28;20044;-75
2023/12/06 20:07:23;;;;;;;211.60;201.57;;;8.40;82.20;;;;;;12526837;28;20435;-74
2023/12/06 20:13:31;;;;;;;158.18;151.15;;;8.40;82.10;;;;;;12560830;28;20032;-75
2023/12/06 20:19:32;;;;;;;255.38;242.73;;;8.30;82.20;;;;;;12542051;28;20036;-75
2023/12/06 20:25:34;;;;;;;168.52;160.05;;;8.20;82.10;;;;;;12541712;28;20033;-75
2023/12/06 20:31:35;;;;;;;213.50;202.38;;;8.20;82.00;;;;;;12559368;28;20029;-75
2023/12/06 20:37:37;;;;;;;217.32;206.80;;;8.20;82.00;;;;;;12541864;28;20339;-75
2023/12/06 20:44:14;;;;;;;174.70;165.82;;;8.20;81.80;;;;;;12524980;28;20037;-75
2023/12/06 20:50:17;;;;;;;213.05;201.73;;;8.10;82.00;;;;;;12558482;28;20317;-74
2023/12/06 20:56:19;;;;;;;213.60;202.18;;;8.10;81.90;;;;;;12560637;28;20119;-75
2023/12/06 21:02:21;;;;;;;222.05;210.75;;;8.00;81.80;;;;;;12524533;28;20063;-75
2023/12/06 21:08:23;;;;;;;201.45;190.80;;;8.00;81.70;;;;;;12538765;28;20339;-75
2023/12/06 21:14:25;;;;;;;208.23;197.23;;;8.00;81.60;;;;;;12539660;28;20351;-75
2023/12/06 21:20:27;;;;;;;153.38;144.50;;;8.00;81.60;;;;;;12556902;28;20044;-75
2023/12/06 21:26:37;;;;;;;170.77;161.75;;;7.90;82.00;;;;;;12538964;28;20033;-75
2023/12/06 21:32:39;;;;;;;185.85;176.95;;;7.80;82.20;;;;;;12556352;28;20355;-75
2023/12/06 21:38:41;;;;;;;150.80;143.25;;;7.80;82.50;;;;;;12538940;28;20486;-75
2023/12/06 21:44:43;;;;;;;174.85;166.43;;;7.70;82.40;;;;;;12522175;28;20047;-75
2023/12/06 21:50:44;;;;;;;126.50;119.57;;;7.60;82.30;;;;;;12555466;28;20041;-75
2023/12/06 21:56:46;;;;;;;146.23;138.55;;;7.50;82.30;;;;;;12555257;28;20036;-75
2023/12/06 22:02:47;;;;;;;126.57;119.93;;;7.40;82.40;;;;;;12538044;28;20024;-75
2023/12/06 22:08:49;;;;;;;110.60;104.38;;;7.50;82.20;;;;;;12554823;28;20447;-75
2023/12/06 22:14:51;;;;;;;117.03;109.88;;;7.40;82.00;;;;;;12554671;28;20036;-72
2023/12/06 22:20:52;;;;;;;134.30;126.90;;;7.50;81.90;;;;;;12553987;28;20055;-72
2023/12/06 22:26:54;;;;;;;136.95;129.50;;;7.50;81.70;;;;;;12554116;28;20452;-72
2023/12/06 22:32:57;;;;;;;109.50;103.30;;;7.40;81.60;;;;;;12554016;28;20347;-72
2023/12/06 22:39:01;;;;;;;115.75;109.25;;;7.30;81.50;;;;;;12535807;28;20331;-72
2023/12/06 22:45:06;;;;;;;105.22;98.82;;;7.30;81.50;;;;;;12536224;28;20040;-72
2023/12/06 22:51:08;;;;;;;89.15;83.75;;;7.20;81.40;;;;;;12541502;22;20055;-72
2023/12/06 22:57:10;;;;;;;80.82;75.88;;;7.00;81.70;;;;;;12535681;28;20415;-72
2023/12/06 23:03:11;;;;;;;105.05;98.22;;;7.00;81.70;;;;;;12553299;28;20355;-72
2023/12/06 23:09:13;;;;;;;85.07;79.03;;;7.00;81.50;;;;;;12519624;28;20033;-72
2023/12/06 23:15:15;;;;;;;105.93;99.85;;;7.10;81.90;;;;;;12535786;28;20045;-72
2023/12/06 23:21:16;;;;;;;78.53;69.72;;;6.80;81.80;;;;;;12552891;28;20083;-72
2023/12/06 23:27:18;;;;;;;62.88;58.35;;;6.70;82.20;;;;;;12535139;28;20458;-72
2023/12/06 23:33:22;;;;;;;58.95;54.65;;;6.60;82.00;;;;;;12556957;28;20040;-72
2023/12/06 23:39:24;;;;;;;79.25;74.07;;;6.60;81.70;;;;;;12561628;28;20044;-72
2023/12/06 23:45:26;;;;;;;73.65;69.28;;;6.60;81.70;;;;;;12543991;28;20033;-72
2023/12/06 23:51:27;;;;;;;60.92;56.90;;;6.60;81.50;;;;;;12543625;28;20044;-72
2023/12/06 23:57:29;;;;;;;72.50;68.30;;;6.70;81.30;;;;;;12543274;28;20045;-72
